createdAt,value
2023-04-18T00:01:50.511Z,11.11
2023-04-18T00:11:53.678Z,11.00
2023-04-18T00:21:58.338Z,10.89
2023-04-18T00:32:01.257Z,10.78
2023-04-18T00:42:05.746Z,10.65
2023-04-18T00:52:11.656Z,10.55
2023-04-18T01:02:18.127Z,10.43
2023-04-18T01:12:22.488Z,10.33
2023-04-18T01:22:27.487Z,10.22
2023-04-18T01:32:32.804Z,10.12
2023-04-18T01:42:35.878Z,10.01
2023-04-18T01:52:40.496Z,9.93
2023-04-18T02:02:43.822Z,9.85
2023-04-18T02:12:54.190Z,9.77
2023-04-18T02:22:57.225Z,9.70
2023-04-18T02:33:02.148Z,9.63
2023-04-18T02:43:08.497Z,9.57
2023-04-18T02:53:16.975Z,9.52
2023-04-18T03:03:20.389Z,9.46
2023-04-18T03:13:27.632Z,9.42
2023-04-18T03:23:30.683Z,9.39
2023-04-18T03:33:36.142Z,9.38
2023-04-18T03:43:39.617Z,9.36
2023-04-18T03:53:45.430Z,9.36
2023-04-18T04:03:48.480Z,9.40
2023-04-18T04:13:56.971Z,9.43
2023-04-18T04:24:03.886Z,9.47
2023-04-18T04:34:09.674Z,9.52
2023-04-18T04:44:18.402Z,9.58
2023-04-18T04:54:24.965Z,9.62
2023-04-18T05:04:27.982Z,9.67
2023-04-18T05:14:33.723Z,9.75
2023-04-18T05:24:37.597Z,9.85
2023-04-18T05:34:43.001Z,9.96
2023-04-18T05:44:46.571Z,10.06
2023-04-18T05:54:51.698Z,10.21
2023-04-18T06:04:58.562Z,10.44
2023-04-18T06:15:08.082Z,10.81
2023-04-18T06:25:12.418Z,11.24
2023-04-18T06:35:17.728Z,11.71
2023-04-18T06:45:22.495Z,12.14
2023-04-18T06:55:28.185Z,12.49
2023-04-18T07:05:31.852Z,12.84
2023-04-18T07:15:36.977Z,13.18
2023-04-18T07:25:40.094Z,13.52
2023-04-18T07:35:47.302Z,13.84
2023-04-18T07:45:52.711Z,14.08
2023-04-18T07:55:58.865Z,14.29
2023-04-18T08:06:03.164Z,14.40
2023-04-18T08:16:10.288Z,14.48
2023-04-18T08:26:13.980Z,14.57
2023-04-18T08:36:18.922Z,14.62
2023-04-18T08:46:24.099Z,14.71
2023-04-18T08:56:30.505Z,14.78
2023-04-18T09:06:33.741Z,14.87
2023-04-18T09:16:51.280Z,14.93
2023-04-18T09:26:57.780Z,15.02
2023-04-18T09:37:10.269Z,15.09
2023-04-18T09:47:15.727Z,15.14
2023-04-18T09:57:26.536Z,15.19
2023-04-18T10:07:30.515Z,15.19
2023-04-18T10:17:56.131Z,15.18
2023-04-18T10:28:09.609Z,15.19
2023-04-18T10:38:18.526Z,15.15
2023-04-18T10:48:26.098Z,15.10
2023-04-18T10:58:32.623Z,15.05
2023-04-18T11:08:35.822Z,14.99
2023-04-18T11:18:44.458Z,14.92
2023-04-18T11:28:56.852Z,14.88
2023-04-18T11:39:01.465Z,14.83
2023-04-18T11:49:06.750Z,14.77
2023-04-18T11:59:11.405Z,14.70
2023-04-18T12:09:16.475Z,14.64
2023-04-18T12:19:21.032Z,14.56
2023-04-18T12:29:27.712Z,14.51
2023-04-18T12:39:32.239Z,14.48
2023-04-18T12:49:36.600Z,14.49
2023-04-18T12:59:41.223Z,14.46
2023-04-18T13:09:44.491Z,14.44
2023-04-18T13:19:49.515Z,14.43
2023-04-18T13:29:52.928Z,14.43
2023-04-18T13:39:59.876Z,14.42
2023-04-18T13:50:02.798Z,14.43
2023-04-18T14:00:13.962Z,14.44
2023-04-18T14:10:17.364Z,14.48
2023-04-18T14:20:23.846Z,14.49
2023-04-18T14:30:26.856Z,14.45
2023-04-18T14:40:35.477Z,14.36
2023-04-18T14:50:40.084Z,14.29
2023-04-18T15:00:45.477Z,14.22
2023-04-18T15:10:49.703Z,14.14
2023-04-18T15:20:59.175Z,14.06
2023-04-18T15:31:06.085Z,13.96
2023-04-18T15:41:10.884Z,13.88
2023-04-18T15:51:16.847Z,13.78
2023-04-18T16:01:22.555Z,13.67
2023-04-18T16:11:26.728Z,13.55
2023-04-18T16:21:34.909Z,13.40
2023-04-18T16:31:39.799Z,13.25
2023-04-18T16:41:49.261Z,13.03
2023-04-18T16:51:53.953Z,12.87
2023-04-18T17:02:00.755Z,12.71
2023-04-18T17:12:06.752Z,12.54
2023-04-18T17:22:12.980Z,12.37
2023-04-18T17:32:17.443Z,12.19
2023-04-18T17:42:29.943Z,12.02
2023-04-18T17:52:44.763Z,11.83
2023-04-18T18:02:54.951Z,11.63
2023-04-18T18:13:09.085Z,11.45
2023-04-18T18:23:18.808Z,11.25
2023-04-18T18:33:28.661Z,11.03
2023-04-18T18:43:41.049Z,10.85
2023-04-18T18:53:46.012Z,10.68
2023-04-18T19:03:52.188Z,10.52
2023-04-18T19:14:00.229Z,10.37
2023-04-18T19:24:07.430Z,10.24
2023-04-18T19:34:14.339Z,10.11
2023-04-18T19:44:19.944Z,9.93
2023-04-18T19:54:24.726Z,9.80
2023-04-18T20:04:34.633Z,9.65
2023-04-18T20:14:43.713Z,9.53
2023-04-18T20:24:51.990Z,9.36
2023-04-18T20:34:55.250Z,9.24
2023-04-18T20:45:03.833Z,9.12
2023-04-18T20:55:10.455Z,8.95
2023-04-18T21:05:18.084Z,8.83
2023-04-18T21:15:26.828Z,8.70
2023-04-18T21:25:34.679Z,8.55
2023-04-18T21:35:40.325Z,8.43
2023-04-18T21:45:48.319Z,8.32
2023-04-18T21:55:59.394Z,8.19
2023-04-18T22:06:05.146Z,8.07
2023-04-18T22:16:09.738Z,7.95
2023-04-18T22:26:15.193Z,7.83
2023-04-18T22:36:18.753Z,7.70
2023-04-18T22:46:24.106Z,7.56
2023-04-18T22:56:27.698Z,7.44
2023-04-18T23:06:39.442Z,7.28
2023-04-18T23:16:57.579Z,7.16
2023-04-18T23:27:14.602Z,7.03
2023-04-18T23:37:21.774Z,6.89
2023-04-18T23:47:31.463Z,6.75
2023-04-18T23:57:34.692Z,6.60
